createdAt,value
2022-08-27T00:01:51.804Z,19.26
2022-08-27T00:03:54.481Z,19.34
2022-08-27T00:05:56.101Z,19.28
2022-08-27T00:07:58.098Z,19.13
2022-08-27T00:09:59.841Z,19.11
2022-08-27T00:12:01.673Z,19.05
2022-08-27T00:14:05.298Z,19.00
2022-08-27T00:16:10.079Z,18.97
2022-08-27T00:18:11.893Z,19.06
2022-08-27T00:20:16.133Z,18.98
2022-08-27T00:22:17.715Z,18.97
2022-08-27T00:24:19.301Z,19.03
2022-08-27T00:26:21.009Z,18.94
2022-08-27T00:28:22.600Z,18.92
2022-08-27T00:30:24.612Z,18.94
2022-08-27T00:32:27.599Z,18.94
2022-08-27T00:34:29.334Z,18.89
2022-08-27T00:36:30.953Z,18.95
2022-08-27T00:38:32.508Z,18.94
2022-08-27T00:40:34.553Z,18.97
2022-08-27T00:42:36.339Z,18.98
2022-08-27T00:44:37.905Z,18.95
2022-08-27T00:46:43.180Z,18.92
2022-08-27T00:48:46.454Z,18.99
2022-08-27T00:50:51.923Z,19.18
2022-08-27T00:52:56.417Z,19.37
2022-08-27T00:55:01.916Z,19.48
2022-08-27T00:57:04.627Z,19.30
2022-08-27T00:59:06.242Z,19.16
2022-08-27T01:01:10.324Z,19.10
2022-08-27T01:03:12.245Z,19.09
2022-08-27T01:05:18.375Z,19.12
2022-08-27T01:07:20.613Z,19.34
2022-08-27T01:09:22.497Z,19.45
2022-08-27T01:11:24.887Z,19.44
2022-08-27T01:13:54.099Z,19.41
2022-08-27T01:15:51.261Z,19.34
2022-08-27T01:17:53.726Z,19.22
2022-08-27T01:19:58.249Z,19.11
2022-08-27T01:22:07.334Z,19.05
2022-08-27T01:24:24.376Z,19.13
2022-08-27T01:26:26.129Z,19.09
2022-08-27T01:28:37.356Z,19.14
2022-08-27T01:30:39.719Z,19.12
2022-08-27T01:32:42.633Z,19.11
2022-08-27T01:34:44.814Z,19.13
2022-08-27T01:36:46.414Z,19.09
2022-08-27T01:38:47.996Z,19.09
2022-08-27T01:40:51.540Z,19.13
2022-08-27T01:42:57.048Z,19.09
2022-08-27T01:45:01.163Z,19.17
2022-08-27T01:47:06.397Z,19.20
2022-08-27T01:49:10.087Z,19.18
2022-08-27T01:51:11.684Z,19.26
2022-08-27T01:53:16.545Z,19.07
2022-08-27T01:55:22.454Z,19.22
2022-08-27T01:57:26.210Z,19.23
2022-08-27T01:59:39.416Z,19.26
2022-08-27T02:01:41.670Z,19.26
2022-08-27T02:03:43.458Z,19.31
2022-08-27T02:05:45.815Z,19.36
2022-08-27T02:07:47.514Z,19.35
2022-08-27T02:09:49.166Z,19.38
2022-08-27T02:11:50.762Z,19.31
2022-08-27T02:13:53.675Z,19.31
2022-08-27T02:15:55.419Z,19.28
2022-08-27T02:17:57.254Z,19.26
2022-08-27T02:19:58.841Z,19.29
2022-08-27T02:22:00.804Z,19.33
2022-08-27T02:24:03.052Z,19.32
2022-08-27T02:26:04.608Z,19.35
2022-08-27T02:28:06.965Z,19.34
2022-08-27T02:30:13.881Z,19.38
2022-08-27T02:32:22.671Z,19.37
2022-08-27T02:34:33.926Z,19.36
2022-08-27T02:36:35.530Z,19.40
2022-08-27T02:38:37.266Z,19.45
2022-08-27T02:40:38.880Z,19.44
2022-08-27T02:42:40.467Z,19.38
2022-08-27T02:44:42.102Z,19.46
2022-08-27T02:46:45.050Z,19.52
2022-08-27T02:48:46.648Z,19.48
2022-08-27T02:50:48.411Z,19.59
2022-08-27T02:52:49.982Z,19.62
2022-08-27T02:54:51.545Z,19.53
2022-08-27T02:56:54.624Z,19.45
2022-08-27T02:58:56.173Z,19.49
2022-08-27T03:00:57.706Z,19.51
2022-08-27T03:03:01.623Z,19.48
2022-08-27T03:05:03.684Z,19.42
2022-08-27T03:07:05.256Z,19.39
2022-08-27T03:09:08.039Z,19.40
2022-08-27T03:11:09.574Z,19.36
2022-08-27T03:13:12.979Z,19.34
2022-08-27T03:15:18.028Z,19.39
2022-08-27T03:17:19.646Z,19.38
2022-08-27T03:19:24.051Z,19.38
2022-08-27T03:21:25.903Z,19.37
2022-08-27T03:23:30.575Z,19.37
2022-08-27T03:25:32.988Z,19.41
2022-08-27T03:27:35.022Z,19.37
2022-08-27T03:29:36.815Z,19.40
2022-08-27T03:31:38.915Z,19.28
2022-08-27T03:33:41.828Z,19.28
2022-08-27T03:35:47.037Z,19.41
2022-08-27T03:37:50.334Z,19.41
2022-08-27T03:39:52.264Z,19.30
2022-08-27T03:41:54.826Z,19.44
2022-08-27T03:43:57.217Z,19.52
2022-08-27T03:46:01.279Z,19.59
2022-08-27T03:48:04.837Z,19.45
2022-08-27T03:50:07.431Z,19.46
2022-08-27T03:52:10.456Z,19.35
2022-08-27T03:54:12.034Z,19.40
2022-08-27T03:56:13.720Z,19.30
2022-08-27T03:58:16.393Z,19.36
2022-08-27T04:00:18.003Z,19.27
2022-08-27T04:02:19.595Z,19.24
2022-08-27T04:04:21.213Z,19.20
2022-08-27T04:06:22.755Z,19.20
2022-08-27T04:08:26.692Z,19.06
2022-08-27T04:10:28.274Z,19.10
2022-08-27T04:12:37.382Z,18.96
2022-08-27T04:14:38.924Z,19.02
2022-08-27T04:16:40.506Z,19.00
2022-08-27T04:18:42.044Z,19.07
2022-08-27T04:20:44.156Z,19.06
2022-08-27T04:22:45.728Z,19.07
2022-08-27T04:24:48.641Z,19.11
2022-08-27T04:26:50.190Z,19.05
2022-08-27T04:28:51.850Z,18.97
2022-08-27T04:30:53.432Z,19.02
2022-08-27T04:32:55.028Z,18.99
2022-08-27T04:34:58.832Z,18.95
2022-08-27T04:37:00.458Z,18.92
2022-08-27T04:39:02.025Z,18.93
2022-08-27T04:41:06.492Z,18.92
2022-08-27T04:43:08.049Z,18.93
2022-08-27T04:45:10.515Z,18.95
2022-08-27T04:47:12.847Z,18.94
2022-08-27T04:49:15.427Z,18.95
2022-08-27T04:51:17.410Z,18.94
2022-08-27T04:53:20.286Z,18.95
2022-08-27T04:55:23.655Z,18.98
2022-08-27T04:57:26.527Z,18.96
2022-08-27T04:59:28.335Z,18.93
2022-08-27T05:01:30.773Z,18.91
2022-08-27T05:03:32.338Z,18.91
2022-08-27T05:05:34.099Z,18.92
2022-08-27T05:07:36.780Z,18.97
2022-08-27T05:09:38.426Z,19.01
2022-08-27T05:11:40.380Z,19.03
2022-08-27T05:13:44.186Z,19.04
2022-08-27T05:15:46.895Z,19.06
2022-08-27T05:17:48.462Z,19.04
2022-08-27T05:19:50.075Z,19.11
2022-08-27T05:21:52.542Z,19.11
2022-08-27T05:23:55.762Z,19.12
2022-08-27T05:25:57.562Z,19.05
2022-08-27T05:27:59.598Z,19.02
2022-08-27T05:30:02.571Z,19.11
2022-08-27T05:32:04.178Z,19.13
2022-08-27T05:34:10.218Z,19.15
2022-08-27T05:36:18.092Z,19.20
2022-08-27T05:38:20.312Z,19.19
2022-08-27T05:40:21.912Z,19.12
2022-08-27T05:42:23.543Z,19.12
2022-08-27T05:44:41.889Z,19.15
2022-08-27T05:46:45.137Z,19.12
2022-08-27T05:48:46.714Z,19.11
2022-08-27T05:50:48.351Z,19.08
2022-08-27T05:52:49.887Z,19.10
2022-08-27T05:54:51.452Z,19.07
2022-08-27T05:56:53.020Z,19.01
2022-08-27T05:58:54.817Z,19.06
2022-08-27T06:01:01.822Z,19.11
2022-08-27T06:03:06.415Z,19.16
2022-08-27T06:05:08.348Z,19.14
2022-08-27T06:07:10.333Z,19.16
2022-08-27T06:09:14.161Z,19.19
2022-08-27T06:11:16.117Z,19.27
2022-08-27T06:13:18.462Z,19.35
2022-08-27T06:15:20.053Z,19.39
2022-08-27T06:17:21.619Z,19.33
2022-08-27T06:19:24.564Z,19.39
2022-08-27T06:21:26.549Z,19.36
2022-08-27T06:23:28.834Z,19.30
2022-08-27T06:25:30.434Z,19.40
2022-08-27T06:27:31.981Z,19.40
2022-08-27T06:29:33.585Z,19.43
2022-08-27T06:31:36.259Z,19.46
2022-08-27T06:33:39.275Z,19.51
2022-08-27T06:35:42.226Z,19.47
2022-08-27T06:37:43.967Z,19.53
2022-08-27T06:39:45.513Z,19.52
2022-08-27T06:41:47.046Z,19.47
2022-08-27T06:43:49.244Z,19.50
2022-08-27T06:45:51.607Z,19.54
2022-08-27T06:47:53.325Z,19.59
2022-08-27T06:49:54.977Z,19.54
2022-08-27T06:51:57.881Z,19.57
2022-08-27T06:54:01.986Z,19.57
2022-08-27T06:56:04.089Z,19.61
2022-08-27T06:58:05.656Z,19.58
2022-08-27T07:00:08.555Z,19.55
2022-08-27T07:02:11.036Z,19.60
2022-08-27T07:04:16.951Z,19.66
2022-08-27T07:06:18.704Z,19.67
2022-08-27T07:08:21.663Z,19.68
2022-08-27T07:10:23.958Z,19.76
2022-08-27T07:12:30.695Z,19.68
2022-08-27T07:14:37.809Z,19.61
2022-08-27T07:16:40.966Z,19.65
2022-08-27T07:18:42.735Z,19.66
2022-08-27T07:20:44.410Z,19.58
2022-08-27T07:22:46.843Z,19.60
2022-08-27T07:24:49.786Z,19.54
2022-08-27T07:26:51.398Z,19.59
2022-08-27T07:28:53.060Z,19.62
2022-08-27T07:30:55.029Z,19.65
2022-08-27T07:32:56.629Z,19.65
2022-08-27T07:34:58.220Z,19.63
2022-08-27T07:36:59.745Z,19.58
2022-08-27T07:39:02.069Z,19.61
2022-08-27T07:41:06.825Z,19.60
2022-08-27T07:43:08.962Z,19.60
2022-08-27T07:45:10.866Z,19.64
2022-08-27T07:47:12.425Z,19.62
2022-08-27T07:49:14.834Z,19.66
2022-08-27T07:51:19.088Z,19.71
2022-08-27T07:53:21.054Z,19.77
2022-08-27T07:55:22.570Z,19.72
2022-08-27T07:57:25.623Z,19.73
2022-08-27T07:59:27.453Z,19.64
2022-08-27T08:01:29.622Z,19.72
2022-08-27T08:03:31.380Z,19.79
2022-08-27T08:05:33.102Z,19.84
2022-08-27T08:07:34.861Z,19.84
2022-08-27T08:09:36.480Z,19.78
2022-08-27T08:11:38.043Z,19.81
2022-08-27T08:13:42.036Z,19.92
2022-08-27T08:15:44.572Z,20.06
2022-08-27T08:17:46.614Z,20.16
2022-08-27T08:20:08.490Z,20.21
2022-08-27T08:22:09.838Z,20.18
2022-08-27T08:24:11.435Z,20.25
2022-08-27T08:26:13.189Z,20.26
2022-08-27T08:28:14.784Z,20.26
2022-08-27T08:30:17.812Z,20.23
2022-08-27T08:32:19.413Z,20.23
2022-08-27T08:34:21.039Z,20.26
2022-08-27T08:36:22.591Z,20.25
2022-08-27T08:38:24.119Z,20.17
2022-08-27T08:40:31.590Z,20.21
2022-08-27T08:42:36.092Z,20.31
2022-08-27T08:44:43.870Z,20.30
2022-08-27T08:46:52.520Z,20.34
2022-08-27T08:48:59.523Z,20.33
2022-08-27T08:51:06.871Z,20.34
2022-08-27T08:53:16.983Z,20.31
2022-08-27T08:55:32.450Z,20.30
2022-08-27T08:57:39.396Z,20.31
2022-08-27T08:59:47.297Z,20.38
2022-08-27T09:01:50.299Z,20.28
2022-08-27T09:03:55.244Z,20.38
2022-08-27T09:06:01.448Z,20.46
2022-08-27T09:08:32.072Z,20.53
2022-08-27T09:10:37.521Z,20.73
2022-08-27T09:12:39.138Z,20.65
2022-08-27T09:14:46.189Z,20.58
2022-08-27T09:16:48.056Z,20.62
2022-08-27T09:18:52.797Z,20.71
2022-08-27T09:21:09.794Z,20.70
2022-08-27T09:23:18.014Z,20.96
2022-08-27T09:25:25.378Z,20.99
2022-08-27T09:27:27.600Z,20.97
2022-08-27T09:29:29.881Z,21.25
2022-08-27T09:31:36.595Z,21.02
2022-08-27T09:33:43.836Z,20.89
2022-08-27T09:36:04.213Z,21.01
2022-08-27T09:38:05.853Z,20.88
2022-08-27T09:40:23.291Z,20.98
2022-08-27T09:42:30.777Z,21.17
2022-08-27T09:44:32.710Z,21.07
2022-08-27T09:46:34.405Z,21.01
2022-08-27T09:48:37.431Z,20.92
2022-08-27T09:50:43.909Z,20.79
2022-08-27T09:52:52.407Z,21.18
2022-08-27T09:54:54.082Z,21.32
2022-08-27T09:56:55.757Z,21.30
2022-08-27T09:59:02.893Z,21.45
2022-08-27T10:01:06.492Z,21.57
2022-08-27T10:03:09.723Z,21.69
2022-08-27T10:05:16.851Z,21.60
2022-08-27T10:07:32.278Z,21.85
2022-08-27T10:09:43.275Z,21.88
2022-08-27T10:11:50.210Z,21.45
2022-08-27T10:14:00.461Z,21.55
2022-08-27T10:16:29.525Z,21.35
2022-08-27T10:18:41.281Z,21.49
2022-08-27T10:20:52.342Z,21.73
2022-08-27T10:23:04.689Z,21.93
2022-08-27T10:25:21.614Z,22.12
2022-08-27T10:27:32.010Z,22.19
2022-08-27T10:29:45.005Z,22.22
2022-08-27T10:32:02.477Z,22.34
2022-08-27T10:34:17.738Z,22.20
2022-08-27T10:36:32.838Z,21.74
2022-08-27T10:38:44.419Z,21.61
2022-08-27T10:40:54.241Z,21.62
2022-08-27T10:43:10.748Z,22.04
2022-08-27T10:45:30.760Z,22.22
2022-08-27T10:47:48.901Z,22.42
2022-08-27T10:49:58.197Z,22.69
2022-08-27T10:52:10.924Z,22.90
2022-08-27T10:54:22.093Z,22.83
2022-08-27T10:56:30.803Z,22.28
2022-08-27T10:58:40.778Z,22.27
2022-08-27T11:00:50.220Z,22.38
2022-08-27T11:02:54.663Z,22.42
2022-08-27T11:05:00.036Z,22.48
2022-08-27T11:07:08.096Z,22.34
2022-08-27T11:09:15.662Z,22.36
2022-08-27T11:12:10.325Z,22.48
2022-08-27T11:13:52.905Z,22.22
2022-08-27T11:15:55.774Z,22.31
2022-08-27T11:18:03.618Z,22.34
2022-08-27T11:20:11.534Z,22.23
2022-08-27T11:22:26.719Z,22.16
2022-08-27T11:24:36.211Z,22.05
2022-08-27T11:26:39.346Z,21.92
2022-08-27T11:28:45.664Z,21.74
2022-08-27T11:30:58.126Z,21.82
2022-08-27T11:33:06.886Z,21.76
2022-08-27T11:35:20.059Z,21.76
2022-08-27T11:37:36.996Z,21.62
2022-08-27T11:39:56.082Z,21.72
2022-08-27T11:42:06.907Z,21.72
2022-08-27T11:44:08.787Z,21.79
2022-08-27T11:46:12.074Z,22.01
2022-08-27T11:48:18.664Z,22.03
2022-08-27T11:50:22.003Z,22.11
2022-08-27T11:52:29.343Z,22.21
2022-08-27T11:54:43.362Z,22.39
2022-08-27T11:56:44.962Z,22.44
2022-08-27T11:58:53.517Z,22.41
2022-08-27T12:00:57.004Z,22.44
2022-08-27T12:03:04.623Z,22.38
2022-08-27T12:05:09.534Z,22.44
2022-08-27T12:07:26.085Z,22.31
2022-08-27T12:09:28.582Z,22.45
2022-08-27T12:11:41.415Z,22.35
2022-08-27T12:13:50.661Z,22.28
2022-08-27T12:15:58.667Z,22.16
2022-08-27T12:18:09.758Z,22.05
2022-08-27T12:20:24.254Z,22.07
2022-08-27T12:22:46.895Z,22.09
2022-08-27T12:24:51.905Z,22.01
2022-08-27T12:26:59.620Z,21.92
2022-08-27T12:29:28.425Z,22.07
2022-08-27T12:31:30.175Z,22.01
2022-08-27T12:33:36.508Z,22.11
2022-08-27T12:35:44.090Z,22.14
2022-08-27T12:37:50.109Z,22.28
2022-08-27T12:39:53.659Z,22.32
2022-08-27T12:41:55.507Z,22.28
2022-08-27T12:44:05.961Z,22.32
2022-08-27T12:46:11.505Z,22.29
2022-08-27T12:48:14.078Z,22.27
2022-08-27T12:50:23.809Z,22.32
2022-08-27T12:52:44.332Z,22.54
2022-08-27T12:54:59.007Z,22.56
2022-08-27T12:57:07.966Z,22.71
2022-08-27T12:59:39.756Z,22.88
2022-08-27T13:01:59.587Z,23.29
2022-08-27T13:04:01.816Z,23.16
2022-08-27T13:06:14.685Z,23.38
2022-08-27T13:08:21.904Z,23.31
2022-08-27T13:10:27.604Z,23.37
2022-08-27T13:12:29.194Z,23.26
2022-08-27T13:14:36.436Z,23.23
2022-08-27T13:16:42.843Z,23.20
2022-08-27T13:18:48.530Z,23.06
2022-08-27T13:20:59.928Z,23.12
2022-08-27T13:23:03.048Z,23.15
2022-08-27T13:25:07.962Z,22.99
2022-08-27T13:27:09.588Z,23.09
2022-08-27T13:29:11.436Z,23.08
2022-08-27T13:31:14.618Z,23.02
2022-08-27T13:33:22.306Z,23.11
2022-08-27T13:35:24.547Z,23.08
2022-08-27T13:37:28.416Z,22.98
2022-08-27T13:39:33.798Z,23.03
2022-08-27T13:41:37.888Z,23.05
2022-08-27T13:43:42.427Z,23.13
2022-08-27T13:45:49.345Z,23.14
2022-08-27T13:47:53.268Z,23.26
2022-08-27T13:50:02.857Z,23.23
2022-08-27T13:52:15.648Z,23.45
2022-08-27T13:54:19.553Z,23.58
2022-08-27T13:56:28.251Z,23.71
2022-08-27T13:58:32.668Z,23.64
2022-08-27T14:00:34.252Z,23.50
2022-08-27T14:02:35.962Z,23.44
2022-08-27T14:04:40.381Z,23.40
2022-08-27T14:06:44.105Z,23.38
2022-08-27T14:08:45.725Z,23.26
2022-08-27T14:10:50.135Z,23.15
2022-08-27T14:12:58.705Z,23.15
2022-08-27T14:15:15.163Z,23.03
2022-08-27T14:17:23.010Z,22.96
2022-08-27T14:19:28.159Z,23.04
2022-08-27T14:21:29.836Z,22.88
2022-08-27T14:23:31.778Z,22.94
2022-08-27T14:25:33.322Z,22.98
2022-08-27T14:27:36.603Z,22.98
2022-08-27T14:29:39.721Z,23.01
2022-08-27T14:31:41.328Z,22.97
2022-08-27T14:33:42.976Z,22.98
2022-08-27T14:35:44.885Z,22.94
2022-08-27T14:37:46.594Z,22.98
2022-08-27T14:39:48.503Z,22.97
2022-08-27T14:41:50.292Z,23.04
2022-08-27T14:43:52.064Z,23.01
2022-08-27T14:45:55.946Z,23.03
2022-08-27T14:48:02.984Z,22.81
2022-08-27T14:50:07.024Z,22.95
2022-08-27T14:52:10.059Z,22.90
2022-08-27T14:54:12.204Z,22.83
2022-08-27T14:56:13.791Z,22.80
2022-08-27T14:58:15.368Z,22.79
2022-08-27T15:00:17.142Z,22.77
2022-08-27T15:02:20.635Z,22.71
2022-08-27T15:04:24.160Z,22.69
2022-08-27T15:06:27.646Z,22.55
2022-08-27T15:08:32.077Z,22.51
2022-08-27T15:10:34.039Z,22.50
2022-08-27T15:12:35.817Z,22.39
2022-08-27T15:14:37.646Z,22.27
2022-08-27T15:16:42.200Z,22.21
2022-08-27T15:18:45.117Z,22.15
2022-08-27T15:21:01.088Z,22.08
2022-08-27T15:23:03.434Z,22.02
2022-08-27T15:25:06.335Z,22.00
2022-08-27T15:27:07.946Z,22.02
2022-08-27T15:29:10.083Z,22.00
2022-08-27T15:31:11.758Z,22.02
2022-08-27T15:33:13.666Z,21.94
2022-08-27T15:35:20.305Z,21.86
2022-08-27T15:37:22.098Z,21.83
2022-08-27T15:39:23.705Z,21.87
2022-08-27T15:41:29.138Z,21.79
2022-08-27T15:43:30.988Z,21.75
2022-08-27T15:45:33.046Z,21.73
2022-08-27T15:47:35.096Z,21.71
2022-08-27T15:49:36.756Z,21.69
2022-08-27T15:51:40.036Z,21.67
2022-08-27T15:53:42.744Z,21.71
2022-08-27T15:55:44.304Z,21.69
2022-08-27T15:57:45.901Z,21.69
2022-08-27T15:59:47.967Z,21.71
2022-08-27T16:01:49.576Z,21.70
2022-08-27T16:03:51.447Z,21.77
2022-08-27T16:05:52.982Z,21.85
2022-08-27T16:07:56.196Z,21.77
2022-08-27T16:09:57.827Z,21.83
2022-08-27T16:11:59.437Z,21.78
2022-08-27T16:14:00.978Z,21.80
2022-08-27T16:16:02.822Z,21.80
2022-08-27T16:18:04.547Z,21.66
2022-08-27T16:20:08.460Z,21.60
2022-08-27T16:22:09.976Z,21.53
2022-08-27T16:24:13.260Z,21.45
2022-08-27T16:26:15.097Z,21.40
2022-08-27T16:28:16.599Z,21.40
2022-08-27T16:30:19.047Z,21.29
2022-08-27T16:32:23.357Z,21.32
2022-08-27T16:34:28.381Z,21.28
2022-08-27T16:36:32.286Z,21.19
2022-08-27T16:38:33.944Z,21.09
2022-08-27T16:40:45.499Z,21.05
2022-08-27T16:42:49.232Z,21.07
2022-08-27T16:44:50.783Z,21.11
2022-08-27T16:46:52.362Z,21.15
2022-08-27T16:49:01.176Z,21.06
2022-08-27T16:51:05.034Z,21.02
2022-08-27T16:53:09.589Z,20.99
2022-08-27T16:55:11.135Z,20.94
2022-08-27T16:57:13.983Z,20.93
2022-08-27T16:59:15.620Z,20.94
2022-08-27T17:01:20.285Z,20.81
2022-08-27T17:03:23.609Z,20.75
2022-08-27T17:05:34.919Z,20.66
2022-08-27T17:07:36.777Z,20.62
2022-08-27T17:09:40.836Z,20.49
2022-08-27T17:11:45.198Z,20.44
2022-08-27T17:13:50.684Z,20.39
2022-08-27T17:15:52.827Z,20.35
2022-08-27T17:17:54.706Z,20.27
2022-08-27T17:19:57.030Z,20.26
2022-08-27T17:21:59.857Z,20.26
2022-08-27T17:24:01.466Z,20.21
2022-08-27T17:26:06.103Z,20.20
2022-08-27T17:28:07.802Z,20.25
2022-08-27T17:30:11.770Z,20.11
2022-08-27T17:32:13.611Z,20.05
2022-08-27T17:34:16.910Z,20.08
2022-08-27T17:36:19.600Z,20.04
2022-08-27T17:38:21.156Z,19.98
2022-08-27T17:40:22.808Z,20.00
2022-08-27T17:42:24.745Z,19.99
2022-08-27T17:44:28.380Z,19.96
2022-08-27T17:46:31.453Z,19.91
2022-08-27T17:48:33.254Z,20.00
2022-08-27T17:50:34.794Z,20.03
2022-08-27T17:52:38.100Z,20.00
2022-08-27T17:54:42.810Z,20.09
2022-08-27T17:56:44.393Z,20.10
2022-08-27T17:58:46.062Z,20.03
2022-08-27T18:00:47.692Z,20.01
2022-08-27T18:02:51.771Z,19.96
2022-08-27T18:04:53.806Z,19.87
2022-08-27T18:06:55.362Z,19.92
2022-08-27T18:08:56.907Z,19.86
2022-08-27T18:10:58.624Z,19.88
2022-08-27T18:13:00.320Z,19.83
2022-08-27T18:15:06.098Z,19.86
2022-08-27T18:17:07.693Z,19.81
2022-08-27T18:19:10.613Z,19.82
2022-08-27T18:21:13.037Z,19.84
2022-08-27T18:23:14.601Z,19.76
2022-08-27T18:25:16.955Z,19.70
2022-08-27T18:27:20.010Z,19.75
2022-08-27T18:29:21.554Z,19.74
2022-08-27T18:31:26.468Z,19.68
2022-08-27T18:33:28.176Z,19.69
2022-08-27T18:35:33.282Z,19.63
2022-08-27T18:37:34.878Z,19.63
2022-08-27T18:39:39.464Z,19.67
2022-08-27T18:41:41.601Z,19.77
2022-08-27T18:43:43.662Z,19.58
2022-08-27T18:45:45.318Z,19.67
2022-08-27T18:47:46.930Z,19.62
2022-08-27T18:49:55.365Z,19.59
2022-08-27T18:51:59.178Z,19.59
2022-08-27T18:54:00.700Z,19.63
2022-08-27T18:56:03.369Z,19.62
2022-08-27T18:58:05.093Z,19.59
2022-08-27T19:00:09.959Z,19.56
2022-08-27T19:02:17.545Z,19.47
2022-08-27T19:04:19.296Z,19.49
2022-08-27T19:06:21.555Z,19.46
2022-08-27T19:08:26.438Z,19.52
2022-08-27T19:10:28.094Z,19.34
2022-08-27T19:12:29.761Z,19.29
2022-08-27T19:14:31.681Z,19.34
2022-08-27T19:16:40.165Z,19.35
2022-08-27T19:18:42.655Z,19.35
2022-08-27T19:20:44.305Z,19.30
2022-08-27T19:22:46.689Z,19.28
2022-08-27T19:24:51.559Z,19.25
2022-08-27T19:26:53.872Z,19.36
2022-08-27T19:28:55.575Z,19.30
2022-08-27T19:30:57.154Z,19.29
2022-08-27T19:32:58.700Z,19.28
2022-08-27T19:35:00.426Z,19.31
2022-08-27T19:37:02.656Z,19.28
2022-08-27T19:39:05.380Z,19.23
2022-08-27T19:41:08.304Z,19.23
2022-08-27T19:43:10.073Z,19.24
2022-08-27T19:45:11.848Z,19.26
2022-08-27T19:47:15.744Z,19.21
2022-08-27T19:49:20.383Z,19.29
2022-08-27T19:51:21.933Z,19.32
2022-08-27T19:53:24.073Z,19.22
2022-08-27T19:55:25.597Z,19.26
2022-08-27T19:57:28.594Z,19.25
2022-08-27T19:59:30.264Z,19.27
2022-08-27T20:01:32.147Z,19.38
2022-08-27T20:03:33.715Z,19.33
2022-08-27T20:05:35.794Z,19.28
2022-08-27T20:07:37.392Z,19.27
2022-08-27T20:09:38.932Z,19.29
2022-08-27T20:11:40.785Z,19.21
2022-08-27T20:13:50.693Z,19.23
2022-08-27T20:15:52.448Z,19.20
2022-08-27T20:17:54.853Z,19.16
2022-08-27T20:19:56.382Z,19.15
2022-08-27T20:21:57.924Z,19.10
2022-08-27T20:23:59.488Z,19.09
2022-08-27T20:26:01.497Z,19.11
2022-08-27T20:28:21.881Z,18.99
2022-08-27T20:30:27.728Z,19.11
2022-08-27T20:32:30.193Z,19.02
2022-08-27T20:34:31.833Z,18.97
2022-08-27T20:36:34.361Z,18.98
2022-08-27T20:38:36.084Z,19.06
2022-08-27T20:40:37.696Z,19.05
2022-08-27T20:42:39.399Z,18.99
2022-08-27T20:44:40.964Z,19.01
2022-08-27T20:46:44.011Z,19.11
2022-08-27T20:48:53.444Z,19.03
2022-08-27T20:50:55.198Z,19.08
2022-08-27T20:52:56.703Z,19.11
2022-08-27T20:54:58.257Z,19.14
2022-08-27T20:57:00.014Z,19.07
2022-08-27T20:59:01.596Z,19.06
2022-08-27T21:01:03.185Z,19.05
2022-08-27T21:03:06.570Z,19.03
2022-08-27T21:05:11.406Z,19.04
2022-08-27T21:07:13.331Z,18.99
2022-08-27T21:09:14.895Z,19.05
2022-08-27T21:11:17.003Z,18.99
2022-08-27T21:13:19.924Z,19.06
2022-08-27T21:15:21.491Z,18.99
2022-08-27T21:17:23.661Z,18.94
2022-08-27T21:19:26.558Z,19.00
2022-08-27T21:21:28.046Z,18.95
2022-08-27T21:23:30.093Z,18.96
2022-08-27T21:25:31.632Z,18.97
2022-08-27T21:27:33.513Z,18.99
2022-08-27T21:29:35.064Z,19.06
2022-08-27T21:31:36.651Z,19.05
2022-08-27T21:33:39.588Z,19.01
2022-08-27T21:35:42.620Z,19.02
2022-08-27T21:37:44.366Z,19.04
2022-08-27T21:39:45.970Z,19.06
2022-08-27T21:41:47.486Z,19.01
2022-08-27T21:43:50.367Z,18.91
2022-08-27T21:45:55.876Z,18.88
2022-08-27T21:47:57.437Z,18.93
2022-08-27T21:49:59.008Z,18.86
2022-08-27T21:52:03.879Z,18.88
2022-08-27T21:54:05.454Z,18.89
2022-08-27T21:56:07.628Z,18.85
2022-08-27T21:58:09.227Z,18.90
2022-08-27T22:00:21.380Z,18.84
2022-08-27T22:02:39.239Z,18.81
2022-08-27T22:04:41.806Z,18.84
2022-08-27T22:06:43.345Z,18.80
2022-08-27T22:08:46.278Z,18.79
2022-08-27T22:10:51.361Z,18.74
2022-08-27T22:12:55.652Z,18.65
2022-08-27T22:15:01.843Z,18.65
2022-08-27T22:17:03.587Z,18.60
2022-08-27T22:19:05.132Z,18.55
2022-08-27T22:21:07.616Z,18.53
2022-08-27T22:23:10.544Z,18.48
2022-08-27T22:25:13.884Z,18.55
2022-08-27T22:27:15.473Z,18.53
2022-08-27T22:29:16.994Z,18.58
2022-08-27T22:31:19.147Z,18.58
2022-08-27T22:33:20.794Z,18.62
2022-08-27T22:35:22.778Z,18.57
2022-08-27T22:37:24.849Z,18.52
2022-08-27T22:39:26.738Z,18.49
2022-08-27T22:41:29.825Z,18.47
2022-08-27T22:43:34.973Z,18.49
2022-08-27T22:45:36.556Z,18.33
2022-08-27T22:47:38.083Z,18.36
2022-08-27T22:49:39.625Z,18.48
2022-08-27T22:51:41.152Z,18.69
2022-08-27T22:53:42.627Z,18.67
2022-08-27T22:55:49.419Z,18.81
2022-08-27T22:57:54.239Z,18.81
2022-08-27T22:59:55.742Z,18.77
2022-08-27T23:01:57.474Z,18.81
2022-08-27T23:03:59.135Z,18.74
2022-08-27T23:06:00.801Z,18.66
2022-08-27T23:08:03.270Z,18.45
2022-08-27T23:10:06.225Z,18.47
2022-08-27T23:12:07.964Z,18.45
2022-08-27T23:14:10.865Z,18.41
2022-08-27T23:16:12.677Z,18.41
2022-08-27T23:18:14.412Z,18.38
2022-08-27T23:20:17.500Z,18.33
2022-08-27T23:22:19.061Z,18.29
2022-08-27T23:24:20.555Z,18.35
2022-08-27T23:26:22.085Z,18.18
2022-08-27T23:28:23.678Z,18.15
2022-08-27T23:30:27.368Z,18.19
2022-08-27T23:32:29.501Z,18.13
2022-08-27T23:34:31.119Z,18.12
2022-08-27T23:36:32.652Z,18.15
2022-08-27T23:38:34.332Z,18.07
2022-08-27T23:40:36.210Z,18.08
2022-08-27T23:42:38.672Z,18.02
2022-08-27T23:44:40.189Z,17.99
2022-08-27T23:46:43.309Z,17.98
2022-08-27T23:48:44.892Z,17.97
2022-08-27T23:50:47.129Z,18.00
2022-08-27T23:52:48.743Z,18.00
2022-08-27T23:54:50.262Z,18.02
2022-08-27T23:56:51.771Z,17.98
2022-08-27T23:58:53.295Z,17.91
